Terminal Aerodrome Forecast
Issued by NWS

Home | Current Version | Previous Version | Text Only | Print | Product List | Glossary On
Versions: 1 2 3 4 5 6 7 8 9 10 11 12 13 14 15 16 17 18 19 20 21 22 23 24 25 26 27 28 29 30
000
FTUS44 KFWD 281120
TAFDAL
TAF
KDAL 281120Z 2812/2912 15008KT P6SM SCT020
      TEMPO 2812/2816 BKN015
     FM281600 18015KT P6SM SCT035 BKN300
     FM291100 17011KT P6SM BKN018=

USA.gov is the U.S. government's official web portal to all federal, state and local government web resources and services.